Time;durP1;ratioP1;P1;durP2;ratioP2;P2;SDS_P1;SDS_P2;PMS_P1;PMS_P2;Temp;Humidity;BMP_temperature;BMP_pressure;BME280_temperature;BME280_humidity;BME280_pressure;Samples;Min_cycle;Max_cycle;Signal;HPM_P1;HPM_P2
2022/04/23 00:01:33;;;;;;;3.67;2.15;;;20.80;50.10;;;;;;4976433;28;20046;-57
2022/04/23 00:03:59;;;;;;;4.63;2.15;;;20.80;50.20;;;;;;4976007;28;20142;-58
2022/04/23 00:06:24;;;;;;;4.50;2.10;;;20.80;50.10;;;;;;4975510;28;20106;-58
2022/04/23 00:08:50;;;;;;;4.20;2.38;;;20.80;50.20;;;;;;4975688;28;20049;-57
2022/04/23 00:11:15;;;;;;;4.60;2.30;;;20.80;50.20;;;;;;4975740;28;20055;-58
2022/04/23 00:13:41;;;;;;;4.93;2.03;;;20.80;50.20;;;;;;4975336;28;20054;-57
2022/04/23 00:16:06;;;;;;;3.88;2.00;;;20.80;50.20;;;;;;4975898;28;20817;-58
2022/04/23 00:18:32;;;;;;;3.25;2.05;;;20.80;50.20;;;;;;4976039;28;20045;-57
2022/04/23 00:20:58;;;;;;;4.53;2.20;;;20.80;50.20;;;;;;4975199;28;20942;-57
2022/04/23 00:23:24;;;;;;;3.58;2.00;;;20.70;50.10;;;;;;4975761;28;20082;-57
2022/04/23 00:25:52;;;;;;;3.65;2.10;;;20.70;50.10;;;;;;4975634;28;20098;-57
2022/04/23 00:28:20;;;;;;;4.68;2.17;;;20.70;50.10;;;;;;4974824;28;20042;-57
2022/04/23 00:30:46;;;;;;;3.25;1.95;;;20.70;50.10;;;;;;4975025;28;20141;-58
2022/04/23 00:33:11;;;;;;;5.72;2.33;;;20.70;50.10;;;;;;4975928;28;20550;-57
2022/04/23 00:35:37;;;;;;;4.03;2.38;;;20.70;50.00;;;;;;4974987;28;20475;-57
2022/04/23 00:38:04;;;;;;;4.00;2.40;;;20.70;50.10;;;;;;4975384;28;20053;-58
2022/04/23 00:40:30;;;;;;;4.95;2.58;;;20.70;50.00;;;;;;4975701;28;20086;-58
2022/04/23 00:42:56;;;;;;;4.78;2.00;;;20.70;50.00;;;;;;4974551;28;20082;-57
2022/04/23 00:45:22;;;;;;;5.07;2.50;;;20.70;50.00;;;;;;4975460;28;20078;-57
2022/04/23 00:47:49;;;;;;;3.47;2.33;;;20.70;50.00;;;;;;4974301;28;20039;-57
2022/04/23 00:50:14;;;;;;;3.85;2.35;;;20.70;50.00;;;;;;4975601;28;20057;-57
2022/04/23 00:52:41;;;;;;;4.47;2.15;;;20.70;50.00;;;;;;4974866;28;20121;-58
2022/04/23 00:55:07;;;;;;;3.72;2.42;;;20.70;50.00;;;;;;4974544;28;20106;-58
2022/04/23 00:57:33;;;;;;;3.20;1.90;;;20.70;50.00;;;;;;4975329;28;20078;-57
2022/04/23 01:00:00;;;;;;;5.38;2.38;;;20.70;50.00;;;;;;4974934;28;20383;-57
2022/04/23 01:02:26;;;;;;;2.63;1.83;;;20.70;50.00;;;;;;4957170;28;20039;-57
2022/04/23 01:04:53;;;;;;;4.38;2.53;;;20.60;49.90;;;;;;4974918;28;20046;-57
2022/04/23 01:07:19;;;;;;;5.95;2.17;;;20.60;49.90;;;;;;4974992;28;20112;-57
2022/04/23 01:09:45;;;;;;;6.53;2.47;;;20.60;50.00;;;;;;4973828;28;20046;-57
2022/04/23 01:12:13;;;;;;;5.13;2.78;;;20.60;50.00;;;;;;4973732;28;20506;-57
2022/04/23 01:15:00;;;;;;;4.03;2.28;;;20.60;50.00;;;;;;4974660;28;20105;-57
2022/04/23 01:17:25;;;;;;;4.20;2.47;;;20.60;50.00;;;;;;4974270;28;20039;-57
2022/04/23 01:19:51;;;;;;;3.28;2.20;;;20.60;50.00;;;;;;4974574;28;20490;-57
2022/04/23 01:22:16;;;;;;;5.50;2.72;;;20.60;50.00;;;;;;4974823;28;20047;-57
2022/04/23 01:24:42;;;;;;;4.00;2.50;;;20.60;50.00;;;;;;4972410;28;20191;-57
2022/04/23 01:27:10;;;;;;;4.45;2.45;;;20.60;50.00;;;;;;4974720;28;20043;-57
2022/04/23 01:29:36;;;;;;;3.25;2.33;;;20.60;50.00;;;;;;4974643;28;20050;-57
2022/04/23 01:32:05;;;;;;;3.95;2.22;;;20.60;50.00;;;;;;4973319;28;20066;-57
2022/04/23 01:34:31;;;;;;;3.65;2.47;;;20.60;50.00;;;;;;4974197;28;20402;-58
2022/04/23 01:36:56;;;;;;;4.50;2.88;;;20.60;50.00;;;;;;4974260;28;20039;-57
2022/04/23 01:39:22;;;;;;;4.03;2.72;;;20.50;50.00;;;;;;4974269;28;20050;-57
2022/04/23 01:41:47;;;;;;;4.45;3.05;;;20.50;50.00;;;;;;4972968;28;20193;-57
2022/04/23 01:44:14;;;;;;;4.75;2.80;;;20.50;49.90;;;;;;4973663;28;20047;-57
2022/04/23 01:46:39;;;;;;;3.47;2.55;;;20.50;49.90;;;;;;4973824;28;20137;-57
2022/04/23 01:49:04;;;;;;;3.70;2.47;;;20.50;50.00;;;;;;4974060;28;20076;-57
2022/04/23 01:51:30;;;;;;;5.13;2.83;;;20.50;50.00;;;;;;4973680;28;20051;-58
2022/04/23 01:53:55;;;;;;;4.43;2.53;;;20.50;50.00;;;;;;4973840;28;20140;-57
2022/04/23 01:56:21;;;;;;;4.07;2.67;;;20.50;50.00;;;;;;4974297;28;20057;-57
2022/04/23 01:58:46;;;;;;;3.92;2.60;;;20.50;50.00;;;;;;4973192;28;20399;-58
2022/04/23 02:01:12;;;;;;;3.58;2.42;;;20.50;50.00;;;;;;4982813;28;20100;-58
2022/04/23 02:03:38;;;;;;;4.05;2.60;;;20.50;50.00;;;;;;4991933;28;20048;-58
2022/04/23 02:06:04;;;;;;;4.15;2.53;;;20.50;50.00;;;;;;4991911;28;20417;-58
2022/04/23 02:08:29;;;;;;;4.63;2.92;;;20.50;50.00;;;;;;4993212;28;20047;-57
2022/04/23 02:10:55;;;;;;;4.45;2.83;;;20.50;50.00;;;;;;4993350;28;20100;-57
2022/04/23 02:13:21;;;;;;;4.43;2.65;;;20.50;50.00;;;;;;4992875;28;20044;-58
2022/04/23 02:15:46;;;;;;;4.57;2.97;;;20.50;50.00;;;;;;4993253;28;20046;-57
2022/04/23 02:18:13;;;;;;;4.00;2.45;;;20.40;50.00;;;;;;4993302;28;20050;-57
2022/04/23 02:20:39;;;;;;;3.25;2.60;;;20.40;50.00;;;;;;4992157;28;20054;-57
2022/04/23 02:23:05;;;;;;;4.78;2.58;;;20.40;50.00;;;;;;4993631;28;20038;-57
2022/04/23 02:25:34;;;;;;;3.97;2.78;;;20.40;50.00;;;;;;4993271;28;20053;-57
2022/04/23 02:28:00;;;;;;;4.50;3.03;;;20.40;50.00;;;;;;4991838;28;20406;-57
2022/04/23 02:30:25;;;;;;;4.13;2.78;;;20.40;50.00;;;;;;4993468;28;20490;-57
2022/04/23 02:32:51;;;;;;;3.83;2.70;;;20.40;50.00;;;;;;4992371;28;20513;-57
2022/04/23 02:35:17;;;;;;;4.35;2.90;;;20.40;50.00;;;;;;4992633;28;20112;-57
2022/04/23 02:37:45;;;;;;;5.35;2.85;;;20.40;50.00;;;;;;4992937;28;20070;-57
2022/04/23 02:40:11;;;;;;;3.60;2.72;;;20.40;50.00;;;;;;4993285;28;20125;-57
2022/04/23 02:42:37;;;;;;;4.72;2.75;;;20.40;50.00;;;;;;4992612;28;20126;-57
2022/04/23 02:45:06;;;;;;;4.20;2.78;;;20.40;50.10;;;;;;4992776;28;20054;-58
2022/04/23 02:48:04;;;;;;;4.43;2.80;;;20.40;50.00;;;;;;4992416;28;20145;-57
2022/04/23 02:50:38;;;;;;;4.20;2.80;;;20.40;50.00;;;;;;4970867;28;20555;-57
2022/04/23 02:53:05;;;;;;;4.00;2.78;;;20.40;50.00;;;;;;4995660;28;20068;-57
2022/04/23 02:55:34;;;;;;;3.70;3.00;;;20.30;50.00;;;;;;4996426;28;20050;-57
2022/04/23 02:58:03;;;;;;;3.22;2.55;;;20.30;49.90;;;;;;4996432;28;20046;-57
2022/04/23 03:00:29;;;;;;;4.63;2.80;;;20.40;50.00;;;;;;4997032;28;20039;-57
2022/04/23 03:02:55;;;;;;;4.75;3.08;;;20.30;50.00;;;;;;4995620;28;20053;-57
2022/04/23 03:05:20;;;;;;;4.22;2.88;;;20.40;50.00;;;;;;4996775;28;20143;-57
2022/04/23 03:07:47;;;;;;;4.13;2.80;;;20.30;50.00;;;;;;4996466;28;20401;-57
2022/04/23 03:10:13;;;;;;;5.20;3.00;;;20.30;50.00;;;;;;4996164;28;20096;-57
2022/04/23 03:12:38;;;;;;;4.00;2.65;;;20.40;50.00;;;;;;4995112;28;20050;-57
2022/04/23 03:15:05;;;;;;;4.43;2.88;;;20.40;50.00;;;;;;4996623;28;20038;-57
2022/04/23 03:17:31;;;;;;;4.03;2.70;;;20.40;50.00;;;;;;4996062;28;20076;-57
2022/04/23 03:19:57;;;;;;;4.43;2.83;;;20.40;49.90;;;;;;4996343;28;20551;-57
2022/04/23 03:22:23;;;;;;;4.93;3.03;;;20.40;49.90;;;;;;4996268;28;20057;-56
2022/04/23 03:24:48;;;;;;;3.58;2.65;;;20.40;49.90;;;;;;4995511;28;20038;-57
2022/04/23 03:27:14;;;;;;;3.85;2.92;;;20.40;49.90;;;;;;4996487;28;20085;-57
2022/04/23 03:29:40;;;;;;;4.82;2.80;;;20.40;49.90;;;;;;4995407;28;20556;-57
2022/04/23 03:32:06;;;;;;;5.07;3.33;;;20.40;49.90;;;;;;4996028;28;20468;-57
2022/04/23 03:34:32;;;;;;;3.65;2.63;;;20.40;49.90;;;;;;4996278;28;20088;-57
2022/04/23 03:36:57;;;;;;;4.75;2.60;;;20.40;49.90;;;;;;4995236;28;20054;-57
2022/04/23 03:39:23;;;;;;;4.65;2.83;;;20.40;50.60;;;;;;4996324;28;20133;-57
2022/04/23 03:41:48;;;;;;;4.53;2.95;;;20.40;49.90;;;;;;4995860;28;20104;-57
2022/04/23 03:44:14;;;;;;;4.45;2.92;;;20.40;49.90;;;;;;4995608;28;20042;-57
2022/04/23 03:46:39;;;;;;;4.78;3.10;;;20.40;49.90;;;;;;4995703;28;20140;-57
2022/04/23 03:49:07;;;;;;;3.97;2.50;;;20.40;49.80;;;;;;4996200;28;20038;-57
2022/04/23 03:51:34;;;;;;;3.10;2.25;;;20.40;49.90;;;;;;4995383;28;20157;-57
2022/04/23 03:54:00;;;;;;;4.40;2.83;;;20.40;49.90;;;;;;4995437;28;20073;-57
2022/04/23 03:56:25;;;;;;;3.38;2.42;;;20.40;49.90;;;;;;4995546;28;20413;-57
2022/04/23 03:58:51;;;;;;;3.92;2.47;;;20.40;49.90;;;;;;4994919;28;20038;-58
2022/04/23 04:01:17;;;;;;;4.03;2.72;;;20.40;50.00;;;;;;4990033;28;20034;-57
2022/04/23 04:03:43;;;;;;;3.60;2.33;;;20.40;50.70;;;;;;4991484;28;20446;-57
2022/04/23 04:06:09;;;;;;;4.03;2.47;;;20.50;50.00;;;;;;4994335;28;20050;-57
2022/04/23 04:08:35;;;;;;;3.78;2.58;;;20.50;50.00;;;;;;4995073;28;20394;-57
2022/04/23 04:11:00;;;;;;;4.07;2.63;;;20.50;50.00;;;;;;4995455;28;20049;-57
2022/04/23 04:13:27;;;;;;;4.15;2.30;;;20.50;50.00;;;;;;4995059;28;20477;-57
2022/04/23 04:15:52;;;;;;;4.05;2.90;;;20.50;49.90;;;;;;4994989;28;20517;-57
2022/04/23 04:18:18;;;;;;;4.60;3.03;;;20.50;49.90;;;;;;4995503;28;20073;-57
2022/04/23 04:20:44;;;;;;;3.78;2.40;;;20.50;49.90;;;;;;4994429;28;20517;-57
2022/04/23 04:23:09;;;;;;;4.32;2.80;;;20.50;49.80;;;;;;4993903;28;20041;-57
2022/04/23 04:25:35;;;;;;;4.35;2.88;;;20.50;49.80;;;;;;4995375;28;20452;-57
2022/04/23 04:28:01;;;;;;;4.28;2.53;;;20.50;49.80;;;;;;4994450;28;20490;-57
2022/04/23 04:30:27;;;;;;;3.70;2.33;;;20.50;49.70;;;;;;4995404;28;20047;-57
2022/04/23 04:32:52;;;;;;;3.80;2.75;;;20.60;49.80;;;;;;4995633;28;20053;-57
2022/04/23 04:35:18;;;;;;;3.28;2.35;;;20.60;49.80;;;;;;4995096;28;20066;-57
2022/04/23 04:37:44;;;;;;;3.88;2.50;;;20.50;49.80;;;;;;4994496;28;20401;-56
2022/04/23 04:40:10;;;;;;;3.65;2.88;;;20.60;49.80;;;;;;4994463;28;20055;-57
2022/04/23 04:42:36;;;;;;;4.57;2.58;;;20.60;49.80;;;;;;4995240;28;20049;-57
2022/04/23 04:45:02;;;;;;;4.05;2.92;;;20.60;49.80;;;;;;4994857;28;20047;-57
2022/04/23 04:47:28;;;;;;;4.05;3.10;;;20.60;49.70;;;;;;4994454;28;20046;-57
2022/04/23 04:49:53;;;;;;;3.40;2.58;;;20.60;49.70;;;;;;4994754;28;20046;-57
2022/04/23 04:52:19;;;;;;;4.10;3.00;;;20.60;49.70;;;;;;4994598;28;20092;-57
2022/04/23 04:54:45;;;;;;;3.70;2.72;;;20.60;49.70;;;;;;4993561;28;20049;-57
2022/04/23 04:57:10;;;;;;;4.35;2.88;;;20.60;49.60;;;;;;4994887;28;20046;-57
2022/04/23 04:59:36;;;;;;;4.57;2.92;;;20.60;49.60;;;;;;4994676;28;20398;-57
2022/04/23 05:02:02;;;;;;;4.00;2.60;;;20.60;49.60;;;;;;4993663;28;20121;-57
2022/04/23 05:04:27;;;;;;;3.58;2.40;;;20.60;49.50;;;;;;4994485;28;20100;-57
2022/04/23 05:06:53;;;;;;;5.10;2.85;;;20.70;49.50;;;;;;4994231;28;20061;-57
2022/04/23 05:09:18;;;;;;;3.83;2.42;;;20.70;49.70;;;;;;4993754;28;20654;-57
2022/04/23 05:11:44;;;;;;;4.47;2.47;;;20.70;49.50;;;;;;4992781;28;20457;-57
2022/04/23 05:14:10;;;;;;;4.28;2.63;;;20.70;49.50;;;;;;4994276;28;20081;-57
2022/04/23 05:16:35;;;;;;;4.40;2.88;;;20.70;49.40;;;;;;4993443;28;20486;-57
2022/04/23 05:19:01;;;;;;;4.18;2.53;;;20.70;49.40;;;;;;4994187;28;20218;-57
2022/04/23 05:21:26;;;;;;;3.35;2.63;;;20.70;49.40;;;;;;4994057;28;20056;-57
2022/04/23 05:23:52;;;;;;;3.70;2.30;;;20.80;49.50;;;;;;4993086;28;20050;-57
2022/04/23 05:26:18;;;;;;;4.47;2.67;;;20.80;49.50;;;;;;4994130;28;20073;-57
2022/04/23 05:28:44;;;;;;;3.25;2.10;;;20.80;49.50;;;;;;4993882;28;20069;-57
2022/04/23 05:31:09;;;;;;;3.45;2.50;;;20.80;49.50;;;;;;4993538;28;20050;-56
2022/04/23 05:33:35;;;;;;;4.07;2.50;;;20.80;49.50;;;;;;4993732;28;20046;-56
2022/04/23 05:36:01;;;;;;;3.85;2.25;;;20.80;49.50;;;;;;4993872;28;20116;-57
2022/04/23 05:38:27;;;;;;;3.28;2.47;;;20.80;49.50;;;;;;4992896;28;20043;-57
2022/04/23 05:40:52;;;;;;;3.22;2.33;;;20.80;49.60;;;;;;4993743;28;20145;-57
2022/04/23 05:43:18;;;;;;;3.20;2.25;;;20.80;49.60;;;;;;4993331;28;20070;-56
2022/04/23 05:45:44;;;;;;;3.22;2.20;;;20.80;49.60;;;;;;4993551;28;20061;-57
2022/04/23 05:48:09;;;;;;;3.42;2.45;;;20.80;49.60;;;;;;4994017;28;20039;-57
2022/04/23 05:50:35;;;;;;;3.55;2.15;;;20.80;49.60;;;;;;4992928;28;20125;-57
2022/04/23 05:53:01;;;;;;;3.58;2.28;;;20.80;49.60;;;;;;4993304;28;20046;-57
2022/04/23 05:55:26;;;;;;;3.35;2.45;;;20.80;49.60;;;;;;4993739;28;20042;-57
2022/04/23 05:57:52;;;;;;;4.63;2.42;;;20.80;49.60;;;;;;4992775;28;20049;-57
2022/04/23 06:00:18;;;;;;;4.05;2.70;;;20.90;49.70;;;;;;4993642;28;20053;-57
2022/04/23 06:02:43;;;;;;;2.63;2.10;;;20.80;49.70;;;;;;4993470;28;20089;-57
2022/04/23 06:05:09;;;;;;;3.67;2.05;;;20.90;49.80;;;;;;4992836;28;20101;-57
2022/04/23 06:07:34;;;;;;;3.38;2.42;;;20.90;49.80;;;;;;4993455;28;20046;-57
2022/04/23 06:10:01;;;;;;;3.25;2.33;;;20.90;49.80;;;;;;4992992;28;20038;-57
2022/04/23 06:12:26;;;;;;;3.42;2.45;;;20.90;49.80;;;;;;4992935;28;20560;-57
2022/04/23 06:14:52;;;;;;;3.25;2.33;;;20.90;49.80;;;;;;4993318;28;20046;-57
2022/04/23 06:17:26;;;;;;;4.00;2.58;;;20.90;49.80;;;;;;4993404;28;20097;-57
2022/04/23 06:19:52;;;;;;;3.72;2.22;;;20.90;49.70;;;;;;4992464;28;20048;-57
2022/04/23 06:22:18;;;;;;;6.00;3.00;;;20.90;49.70;;;;;;4993475;28;20109;-57
2022/04/23 06:24:44;;;;;;;4.35;2.65;;;20.90;49.30;;;;;;4993209;28;20050;-58
2022/04/23 06:27:09;;;;;;;3.45;2.40;;;20.90;49.00;;;;;;4992033;28;20046;-56
2022/04/23 06:29:36;;;;;;;5.15;2.40;;;20.90;48.90;;;;;;4993172;28;20042;-57
2022/04/23 06:32:02;;;;;;;4.13;2.50;;;20.90;48.90;;;;;;4992603;28;20510;-56
2022/04/23 06:34:28;;;;;;;4.28;2.50;;;21.00;49.00;;;;;;4992608;28;20051;-56
2022/04/23 06:36:53;;;;;;;4.57;2.53;;;21.00;49.00;;;;;;4993004;28;20109;-56
2022/04/23 06:39:19;;;;;;;5.35;2.65;;;21.00;49.00;;;;;;4993030;28;20497;-56
2022/04/23 06:41:45;;;;;;;3.78;2.47;;;21.00;49.00;;;;;;4992346;28;20181;-56
2022/04/23 06:44:10;;;;;;;4.05;2.40;;;21.00;49.00;;;;;;4992975;28;20100;-57
2022/04/23 06:46:36;;;;;;;2.83;1.98;;;21.00;49.00;;;;;;4992172;28;20050;-56
2022/04/23 06:49:05;;;;;;;4.60;2.28;;;21.00;49.10;;;;;;4992557;28;20045;-58
2022/04/23 06:51:31;;;;;;;3.75;2.55;;;21.10;49.10;;;;;;4992970;28;20486;-57
2022/04/23 06:53:56;;;;;;;6.43;2.30;;;21.10;49.20;;;;;;4992033;28;20104;-57
2022/04/23 06:56:22;;;;;;;4.43;2.40;;;21.10;49.30;;;;;;4993006;28;20494;-57
2022/04/23 06:58:48;;;;;;;6.35;2.35;;;21.10;49.30;;;;;;4992735;28;20046;-57
2022/04/23 07:01:15;;;;;;;4.72;2.38;;;21.10;50.10;;;;;;4992176;28;20042;-57
2022/04/23 07:03:40;;;;;;;3.47;2.38;;;21.20;49.60;;;;;;4992438;28;20500;-57
2022/04/23 07:06:06;;;;;;;5.00;2.38;;;21.20;49.60;;;;;;4992892;28;20042;-58
2022/04/23 07:08:31;;;;;;;3.15;2.50;;;21.20;49.70;;;;;;4992043;28;20046;-57
2022/04/23 07:10:58;;;;;;;4.28;2.55;;;21.20;49.70;;;;;;4987755;28;20055;-57
2022/04/23 07:13:23;;;;;;;5.35;2.85;;;21.20;49.70;;;;;;4983436;28;20053;-57
2022/04/23 07:15:49;;;;;;;5.13;2.83;;;21.20;49.80;;;;;;4980494;28;20114;-57
2022/04/23 07:18:14;;;;;;;3.63;2.40;;;21.30;49.80;;;;;;4983173;28;20121;-57
2022/04/23 07:20:40;;;;;;;4.25;2.28;;;21.30;49.80;;;;;;4981439;28;20065;-56
2022/04/23 07:25:50;;;;;;;8.48;3.08;;;21.30;49.80;;;;;;4983434;28;20128;-57
2022/04/23 07:28:15;;;;;;;4.60;2.95;;;21.30;49.60;;;;;;4975801;28;20466;-57
2022/04/23 07:30:42;;;;;;;5.38;2.60;;;21.30;49.70;;;;;;4972349;28;20043;-58
2022/04/23 07:33:08;;;;;;;3.80;2.65;;;21.40;49.80;;;;;;4972844;28;20388;-56
2022/04/23 07:38:22;;;;;;;4.55;2.50;;;21.40;49.80;;;;;;4974308;28;20046;-57
2022/04/23 07:40:48;;;;;;;6.10;2.65;;;21.40;49.80;;;;;;4976260;28;20093;-57
2022/04/23 07:43:14;;;;;;;6.40;2.58;;;21.50;49.90;;;;;;4975804;28;20043;-57
2022/04/23 07:45:40;;;;;;;5.88;2.90;;;21.50;49.90;;;;;;4976445;28;20069;-57
2022/04/23 07:48:06;;;;;;;6.15;2.70;;;21.50;50.00;;;;;;4976567;28;20043;-57
2022/04/23 07:50:33;;;;;;;3.90;2.40;;;21.50;50.00;;;;;;4975865;28;20047;-57
2022/04/23 07:52:58;;;;;;;6.53;2.75;;;21.50;50.00;;;;;;4976225;28;20039;-58
2022/04/23 07:55:24;;;;;;;6.88;2.88;;;21.50;50.10;;;;;;4987864;28;20035;-57
2022/04/23 07:57:49;;;;;;;4.35;2.75;;;21.50;50.10;;;;;;4994526;28;20111;-57
2022/04/23 08:00:15;;;;;;;5.68;2.75;;;21.50;50.10;;;;;;4995841;28;20406;-57
2022/04/23 08:02:41;;;;;;;3.50;2.50;;;21.60;50.20;;;;;;4995418;28;20046;-57
2022/04/23 08:05:09;;;;;;;3.67;2.30;;;21.60;50.20;;;;;;4994907;28;20049;-57
2022/04/23 08:07:35;;;;;;;5.18;2.75;;;21.60;50.20;;;;;;4995397;28;20147;-57
2022/04/23 08:10:02;;;;;;;4.32;2.70;;;21.60;50.20;;;;;;4995044;28;20129;-57
2022/04/23 08:12:28;;;;;;;5.03;2.67;;;21.60;50.20;;;;;;4994468;28;20058;-58
2022/04/23 08:14:53;;;;;;;3.83;2.35;;;21.60;50.20;;;;;;4995025;28;20230;-58
2022/04/23 08:17:19;;;;;;;4.60;2.80;;;21.70;50.30;;;;;;4995503;28;20505;-57
2022/04/23 08:19:44;;;;;;;5.13;2.63;;;21.70;50.20;;;;;;4994358;28;20103;-58
2022/04/23 08:22:10;;;;;;;6.30;2.72;;;21.70;50.30;;;;;;4994272;28;20085;-58
2022/04/23 08:24:35;;;;;;;4.28;2.83;;;21.70;50.20;;;;;;4995393;28;20487;-57
2022/04/23 08:27:01;;;;;;;4.63;2.75;;;21.70;50.30;;;;;;4993879;28;20050;-57
2022/04/23 08:32:10;;;;;;;3.70;2.83;;;21.70;50.30;;;;;;4994372;28;20058;-58
2022/04/23 08:34:36;;;;;;;5.85;3.00;;;21.70;50.20;;;;;;4995330;28;20046;-57
2022/04/23 08:37:02;;;;;;;3.95;2.75;;;21.80;50.30;;;;;;4994890;28;20047;-57
2022/04/23 08:39:27;;;;;;;5.32;2.85;;;21.70;50.20;;;;;;4994141;28;20051;-57
2022/04/23 08:41:53;;;;;;;3.22;2.30;;;21.80;50.30;;;;;;4994525;28;20128;-58
2022/04/23 08:44:20;;;;;;;4.63;3.17;;;21.80;50.30;;;;;;4995027;28;20047;-57
2022/04/23 08:46:46;;;;;;;4.15;2.70;;;21.80;50.30;;;;;;4993112;28;20042;-58
2022/04/23 08:49:16;;;;;;;4.18;2.50;;;21.80;50.30;;;;;;4993738;28;20088;-57
2022/04/23 08:51:52;;;;;;;4.00;2.80;;;21.80;50.30;;;;;;4994367;28;20514;-57
2022/04/23 08:54:18;;;;;;;3.97;2.80;;;21.80;50.30;;;;;;4994088;28;20058;-57
2022/04/23 08:56:44;;;;;;;4.97;2.67;;;21.80;50.30;;;;;;4994314;28;20042;-58
2022/04/23 08:59:17;;;;;;;4.30;2.63;;;21.80;50.30;;;;;;4994902;28;20478;-58
2022/04/23 09:01:44;;;;;;;4.43;3.15;;;21.80;50.40;;;;;;4994070;28;20097;-57
2022/04/23 09:04:10;;;;;;;6.67;2.80;;;21.90;50.40;;;;;;4994845;28;20046;-57
2022/04/23 09:06:43;;;;;;;4.22;2.53;;;21.90;50.30;;;;;;4994271;28;20313;-57
2022/04/23 09:09:11;;;;;;;5.30;2.60;;;21.90;50.30;;;;;;4984272;28;20105;-57
2022/04/23 09:11:37;;;;;;;4.40;2.60;;;21.90;50.20;;;;;;4975393;28;20069;-57
2022/04/23 09:14:03;;;;;;;7.32;2.92;;;21.90;50.30;;;;;;4994031;28;20470;-58
2022/04/23 09:24:46;;;;;;;5.43;3.15;;;21.90;50.00;;;;;;4993687;28;20142;-57
2022/04/23 09:27:12;;;;;;;4.05;2.47;;;21.90;50.00;;;;;;4994128;28;20060;-57
2022/04/23 09:29:37;;;;;;;5.50;3.00;;;21.90;49.80;;;;;;4993270;28;20466;-57
2022/04/23 09:32:09;;;;;;;4.97;2.78;;;21.90;49.80;;;;;;4992845;28;20479;-57
2022/04/23 09:34:35;;;;;;;5.35;2.90;;;22.00;49.70;;;;;;4994065;28;20121;-57
2022/04/23 09:37:00;;;;;;;6.70;3.30;;;21.90;49.60;;;;;;4992973;28;20479;-57
2022/04/23 09:39:35;;;;;;;7.95;3.58;;;22.00;49.80;;;;;;4993883;28;20046;-58
2022/04/23 09:42:14;;;;;;;13.35;4.35;;;21.90;49.70;;;;;;4985688;28;20089;-57
2022/04/23 09:44:40;;;;;;;8.52;4.38;;;21.90;49.20;;;;;;4973809;28;20042;-57
2022/04/23 09:47:05;;;;;;;9.88;4.03;;;21.90;49.80;;;;;;4974429;28;20126;-57
2022/04/23 09:49:31;;;;;;;8.40;4.00;;;21.90;49.10;;;;;;4973753;28;20134;-57
2022/04/23 09:52:07;;;;;;;9.45;3.88;;;21.90;49.20;;;;;;4974163;28;20046;-57
2022/04/23 09:54:32;;;;;;;6.50;3.55;;;21.90;50.00;;;;;;4974036;28;20047;-57
2022/04/23 09:56:58;;;;;;;8.68;4.20;;;21.90;49.30;;;;;;4973266;28;20923;-57
2022/04/23 09:59:24;;;;;;;7.97;4.00;;;22.00;49.40;;;;;;4974434;28;20046;-57
2022/04/23 10:01:50;;;;;;;8.07;3.97;;;22.00;49.40;;;;;;4973145;28;20134;-57
2022/04/23 10:04:26;;;;;;;10.38;3.95;;;22.00;49.40;;;;;;4973594;28;20050;-57
2022/04/23 10:06:52;;;;;;;7.22;3.95;;;22.00;49.40;;;;;;4986849;28;20042;-57
2022/04/23 10:09:23;;;;;;;7.35;3.75;;;22.00;49.40;;;;;;4993502;28;20049;-57
2022/04/23 10:11:49;;;;;;;10.25;4.05;;;22.00;49.20;;;;;;4992638;28;20038;-57
2022/04/23 10:14:22;;;;;;;11.15;4.43;;;22.00;49.10;;;;;;4991728;28;20046;-57
2022/04/23 10:16:48;;;;;;;7.53;4.45;;;22.00;48.90;;;;;;4993379;28;20144;-57
2022/04/23 10:19:14;;;;;;;8.57;4.22;;;22.00;48.70;;;;;;4992653;28;20046;-58
2022/04/23 10:21:42;;;;;;;5.15;3.42;;;22.00;48.70;;;;;;4992981;28;20041;-57
2022/04/23 10:24:28;;;;;;;6.28;3.97;;;22.00;48.60;;;;;;4993327;28;20042;-57
2022/04/23 10:27:07;;;;;;;10.07;4.13;;;22.00;48.50;;;;;;4977090;28;20056;-58
2022/04/23 10:29:32;;;;;;;10.27;3.60;;;22.00;48.60;;;;;;4993570;28;20053;-57
2022/04/23 10:32:10;;;;;;;6.72;3.75;;;22.00;48.60;;;;;;4974670;28;20054;-58
2022/04/23 10:34:36;;;;;;;8.23;4.05;;;21.90;48.40;;;;;;4993500;28;20050;-57
2022/04/23 10:37:16;;;;;;;5.82;4.07;;;22.00;48.40;;;;;;4993087;28;20053;-57
2022/04/23 10:39:51;;;;;;;6.60;4.03;;;22.00;48.30;;;;;;4992093;28;20047;-58
2022/04/23 10:42:17;;;;;;;6.70;3.80;;;22.00;48.30;;;;;;4993049;28;20046;-57
2022/04/23 10:44:44;;;;;;;5.72;3.40;;;21.90;48.30;;;;;;4993112;28;20057;-58
2022/04/23 10:47:14;;;;;;;5.25;3.67;;;21.90;48.30;;;;;;4992586;28;20081;-57
2022/04/23 10:49:40;;;;;;;6.85;4.07;;;22.00;48.30;;;;;;4993076;28;20050;-58
2022/04/23 10:52:05;;;;;;;6.53;3.75;;;22.00;48.30;;;;;;4993317;28;20046;-57
2022/04/23 10:54:40;;;;;;;6.43;3.60;;;22.00;48.20;;;;;;4974870;28;20045;-57
2022/04/23 10:57:10;;;;;;;6.80;3.30;;;22.00;48.20;;;;;;4993044;28;20104;-57
2022/04/23 10:59:49;;;;;;;8.10;4.10;;;22.00;48.10;;;;;;4993038;28;20042;-57
2022/04/23 11:02:29;;;;;;;7.82;3.50;;;22.00;48.10;;;;;;4993236;28;20512;-57
2022/04/23 11:13:30;;;;;;;4.83;3.30;;;22.00;48.10;;;;;;4994205;28;20125;-57
2022/04/23 11:16:18;;;;;;;5.63;3.63;;;22.00;48.00;;;;;;4995473;28;20053;-57
2022/04/23 11:18:45;;;;;;;5.47;3.30;;;22.00;47.90;;;;;;4996559;28;20053;-57
2022/04/23 11:21:19;;;;;;;5.60;3.38;;;22.00;47.90;;;;;;4996046;28;20046;-57
2022/04/23 11:23:45;;;;;;;5.85;3.85;;;22.00;47.90;;;;;;4995015;28;20096;-57
2022/04/23 11:26:12;;;;;;;6.28;3.55;;;22.00;47.90;;;;;;4996341;28;20042;-57
2022/04/23 11:28:40;;;;;;;5.65;3.15;;;21.90;47.80;;;;;;4996019;28;20047;-57
2022/04/23 11:31:15;;;;;;;5.23;3.50;;;22.00;47.90;;;;;;4995451;28;20042;-57
2022/04/23 11:33:54;;;;;;;5.90;3.40;;;22.00;47.90;;;;;;4996236;28;20112;-57
2022/04/23 11:36:23;;;;;;;4.72;3.40;;;22.00;47.80;;;;;;4995669;28;20050;-57
2022/04/23 11:38:49;;;;;;;4.53;3.13;;;22.00;47.80;;;;;;4995989;28;20054;-57
2022/04/23 11:41:53;;;;;;;7.50;3.42;;;22.00;47.80;;;;;;4996330;28;20065;-57
2022/04/23 11:44:20;;;;;;;5.70;3.40;;;22.00;47.80;;;;;;4936118;29;20051;-57
2022/04/23 11:46:51;;;;;;;5.60;3.00;;;22.00;47.80;;;;;;4919927;29;20111;-57
2022/04/23 11:49:30;;;;;;;5.55;3.40;;;22.00;47.80;;;;;;4965972;28;20051;-57
2022/04/23 11:51:59;;;;;;;4.65;3.17;;;22.00;47.70;;;;;;4996032;28;20050;-57
2022/04/23 11:54:33;;;;;;;5.00;3.20;;;22.00;47.70;;;;;;4995966;28;20061;-57
2022/04/23 11:56:58;;;;;;;6.15;3.10;;;22.00;47.70;;;;;;4995144;28;20046;-57
2022/04/23 11:59:24;;;;;;;4.85;3.20;;;22.00;47.70;;;;;;4995824;28;20138;-57
2022/04/23 12:01:49;;;;;;;5.05;3.30;;;22.00;47.70;;;;;;4994266;28;20460;-57
2022/04/23 12:04:15;;;;;;;4.53;3.22;;;22.00;47.70;;;;;;4994140;28;20085;-57
2022/04/23 12:06:45;;;;;;;6.05;3.40;;;22.00;47.70;;;;;;4995584;28;20043;-57
2022/04/23 12:09:11;;;;;;;4.85;3.47;;;22.00;47.70;;;;;;4994616;28;20039;-57
2022/04/23 12:11:37;;;;;;;5.20;2.92;;;22.00;47.70;;;;;;4995084;28;20421;-57
2022/04/23 12:14:03;;;;;;;4.75;3.28;;;22.00;47.70;;;;;;4995486;28;20094;-57
2022/04/23 12:16:32;;;;;;;4.57;2.92;;;22.00;47.60;;;;;;4995451;28;20057;-58
2022/04/23 12:19:02;;;;;;;4.43;3.20;;;22.00;47.70;;;;;;4994600;28;20105;-57
2022/04/23 12:21:28;;;;;;;4.50;3.05;;;22.00;47.60;;;;;;4995583;28;20050;-57
2022/04/23 12:23:53;;;;;;;6.07;3.05;;;22.00;47.50;;;;;;4993786;28;20038;-57
2022/04/23 12:26:23;;;;;;;5.50;3.38;;;22.00;47.60;;;;;;4993709;28;20478;-58
2022/04/23 12:42:24;;;;;;;4.32;2.85;;;22.10;47.70;;;;;;4995407;28;20046;-57
2022/04/23 12:44:51;;;;;;;5.85;2.85;;;22.00;47.60;;;;;;4994840;28;20383;-57
2022/04/23 12:47:24;;;;;;;4.43;3.00;;;22.10;47.70;;;;;;4994179;28;20053;-57
2022/04/23 12:49:51;;;;;;;4.03;2.80;;;22.10;47.60;;;;;;4993463;28;20733;-57
2022/04/23 12:52:25;;;;;;;4.13;3.00;;;22.10;47.60;;;;;;4994355;28;20061;-57
2022/04/23 12:55:15;;;;;;;3.85;3.03;;;22.10;47.60;;;;;;4994535;28;20482;-57
2022/04/23 12:57:44;;;;;;;3.50;2.58;;;22.10;47.60;;;;;;4994912;28;20050;-57
2022/04/23 13:00:11;;;;;;;4.95;2.97;;;22.10;47.50;;;;;;4994193;28;20046;-57
2022/04/23 13:02:39;;;;;;;4.47;2.72;;;22.10;47.50;;;;;;4994848;28;20050;-57
2022/04/23 13:05:05;;;;;;;4.18;2.67;;;22.20;47.50;;;;;;4994929;28;20501;-57
2022/04/23 13:10:16;;;;;;;4.25;2.90;;;22.20;47.50;;;;;;4994512;28;20042;-57
2022/04/23 13:12:41;;;;;;;6.63;3.30;;;22.20;47.40;;;;;;4994354;28;20054;-57
2022/04/23 13:15:07;;;;;;;6.90;2.85;;;22.20;47.20;;;;;;4993725;28;20053;-57
2022/04/23 13:17:34;;;;;;;5.05;2.80;;;22.20;47.10;;;;;;4994393;28;20056;-57
2022/04/23 13:20:01;;;;;;;4.90;2.47;;;22.20;47.00;;;;;;4994119;28;20042;-57
2022/04/23 13:22:27;;;;;;;3.47;2.40;;;22.30;47.00;;;;;;4993728;28;20061;-57
2022/04/23 13:24:53;;;;;;;4.65;2.80;;;22.30;47.00;;;;;;4993807;28;20564;-57
2022/04/23 13:27:18;;;;;;;3.40;2.42;;;22.30;47.00;;;;;;4994400;28;20064;-57